createdAt,value
2019-04-25T00:02:24.021Z,13.10
2019-04-25T00:04:53.433Z,13.00
2019-04-25T00:07:23.021Z,13.00
2019-04-25T00:09:53.661Z,13.00
2019-04-25T00:12:23.785Z,12.90
2019-04-25T00:14:54.733Z,12.80
2019-04-25T00:17:25.126Z,12.80
2019-04-25T00:19:54.459Z,12.70
2019-04-25T00:22:42.567Z,12.60
2019-04-25T00:25:29.620Z,12.60
2019-04-25T00:27:59.010Z,12.50
2019-04-25T00:30:31.248Z,12.50
2019-04-25T00:33:02.032Z,12.50
2019-04-25T00:35:31.938Z,12.50
2019-04-25T00:38:02.353Z,12.40
2019-04-25T00:40:31.946Z,12.50
2019-04-25T00:43:01.662Z,12.40
2019-04-25T00:45:31.737Z,12.40
2019-04-25T00:48:04.011Z,12.40
2019-04-25T00:50:32.691Z,12.30
2019-04-25T00:53:02.015Z,12.30
2019-04-25T00:55:31.535Z,12.30
2019-04-25T00:58:21.431Z,12.30
2019-04-25T01:01:11.981Z,12.20
2019-04-25T01:03:43.312Z,12.20
2019-04-25T01:06:13.042Z,12.20
2019-04-25T01:08:42.366Z,12.20
2019-04-25T01:11:11.693Z,12.10
2019-04-25T01:13:42.273Z,12.10
2019-04-25T01:16:12.023Z,12.10
2019-04-25T01:18:41.456Z,12.10
2019-04-25T01:21:10.789Z,12.10
2019-04-25T01:23:40.109Z,12.10
2019-04-25T01:26:09.718Z,12.10
2019-04-25T01:28:39.038Z,12.10
2019-04-25T01:31:10.082Z,12.10
2019-04-25T01:33:39.398Z,12.00
2019-04-25T01:36:10.641Z,12.00
2019-04-25T01:38:44.313Z,12.00
2019-04-25T01:41:15.558Z,12.00
2019-04-25T01:43:48.362Z,12.00
2019-04-25T01:46:18.002Z,12.00
2019-04-25T01:48:48.521Z,12.00
2019-04-25T01:51:18.001Z,12.00
2019-04-25T01:53:48.962Z,11.90
2019-04-25T01:56:18.398Z,11.90
2019-04-25T01:58:47.713Z,11.90
2019-04-25T02:01:17.230Z,11.90
2019-04-25T02:03:46.609Z,11.90
2019-04-25T02:06:16.021Z,11.80
2019-04-25T02:08:45.332Z,11.80
2019-04-25T02:11:31.082Z,11.80
2019-04-25T02:14:00.481Z,11.80
2019-04-25T02:16:29.835Z,11.80
2019-04-25T02:18:59.828Z,11.70
2019-04-25T02:21:29.423Z,11.70
2019-04-25T02:23:58.819Z,11.70
2019-04-25T02:26:28.320Z,11.70
2019-04-25T02:28:58.378Z,11.60
2019-04-25T02:31:27.745Z,11.60
2019-04-25T02:34:00.417Z,11.60
2019-04-25T02:36:28.169Z,11.60
2019-04-25T02:39:01.133Z,11.50
2019-04-25T02:41:28.509Z,11.50
2019-04-25T02:44:01.218Z,11.40
2019-04-25T02:46:46.939Z,11.40
2019-04-25T02:49:34.737Z,11.40
2019-04-25T02:52:12.839Z,11.30
2019-04-25T02:54:40.301Z,11.30
2019-04-25T02:57:09.630Z,11.30
2019-04-25T02:59:39.159Z,11.20
2019-04-25T03:02:09.367Z,11.20
2019-04-25T03:04:38.822Z,11.20
2019-04-25T03:07:11.314Z,11.20
2019-04-25T03:09:39.252Z,11.20
2019-04-25T03:12:09.442Z,11.20
2019-04-25T03:14:38.973Z,11.10
2019-04-25T03:17:09.963Z,11.10
2019-04-25T03:19:43.687Z,11.10
2019-04-25T03:22:20.074Z,11.10
2019-04-25T03:24:49.759Z,11.10
2019-04-25T03:27:19.095Z,11.00
2019-04-25T03:29:48.422Z,11.10
2019-04-25T03:32:19.872Z,11.00
2019-04-25T03:34:48.842Z,11.00
2019-04-25T03:37:18.230Z,11.00
2019-04-25T03:39:47.559Z,10.90
2019-04-25T03:42:16.880Z,10.90
2019-04-25T03:44:46.213Z,10.90
2019-04-25T03:47:15.542Z,10.90
2019-04-25T03:49:44.874Z,10.90
2019-04-25T03:52:14.309Z,10.90
2019-04-25T03:54:44.213Z,10.90
2019-04-25T03:57:14.623Z,10.80
2019-04-25T03:59:44.310Z,10.80
2019-04-25T04:02:15.204Z,10.80
2019-04-25T04:04:44.707Z,10.70
2019-04-25T04:07:14.698Z,10.70
2019-04-25T04:09:45.247Z,10.70
2019-04-25T04:12:15.512Z,10.70
2019-04-25T04:14:45.117Z,10.60
2019-04-25T04:17:16.144Z,10.60
2019-04-25T04:19:47.859Z,10.60
2019-04-25T04:22:18.947Z,10.60
2019-04-25T04:24:49.922Z,10.50
2019-04-25T04:27:19.318Z,10.50
2019-04-25T04:29:48.666Z,10.50
2019-04-25T04:32:17.988Z,10.50
2019-04-25T04:34:47.318Z,10.50
2019-04-25T04:37:17.452Z,10.40
2019-04-25T04:39:46.957Z,10.40
2019-04-25T04:42:16.271Z,10.30
2019-04-25T04:44:45.611Z,10.30
2019-04-25T04:47:15.481Z,10.30
2019-04-25T04:49:45.262Z,10.20
2019-04-25T04:52:15.719Z,10.30
2019-04-25T04:54:45.286Z,10.20
2019-04-25T04:57:23.285Z,10.20
2019-04-25T04:59:45.627Z,10.20
2019-04-25T05:02:28.714Z,10.30
2019-04-25T05:04:59.694Z,10.30
2019-04-25T05:07:47.168Z,10.30
2019-04-25T05:10:18.697Z,10.30
2019-04-25T05:12:47.538Z,10.40
2019-04-25T05:15:19.164Z,10.40
2019-04-25T05:17:48.777Z,10.40
2019-04-25T05:20:18.880Z,10.50
2019-04-25T05:22:48.465Z,10.60
2019-04-25T05:25:18.106Z,10.60
2019-04-25T05:27:59.639Z,10.70
2019-04-25T05:30:21.695Z,10.80
2019-04-25T05:32:51.031Z,10.90
2019-04-25T05:35:20.663Z,11.00
2019-04-25T05:37:49.990Z,11.20
2019-04-25T05:40:20.139Z,11.20
2019-04-25T05:42:56.938Z,11.30
2019-04-25T05:45:33.993Z,11.40
2019-04-25T05:48:04.221Z,11.50
2019-04-25T05:50:34.858Z,11.50
2019-04-25T05:53:04.367Z,11.60
2019-04-25T05:55:34.306Z,11.70
2019-04-25T05:58:03.969Z,11.80
2019-04-25T06:00:34.131Z,11.90
2019-04-25T06:03:04.729Z,11.90
2019-04-25T06:05:35.257Z,12.10
2019-04-25T06:08:04.589Z,12.20
2019-04-25T06:10:36.509Z,12.30
2019-04-25T06:13:26.449Z,12.40
2019-04-25T06:15:56.823Z,12.50
2019-04-25T06:18:27.790Z,12.60
2019-04-25T06:20:57.169Z,12.80
2019-04-25T06:23:46.573Z,12.90
2019-04-25T06:26:26.737Z,13.20
2019-04-25T06:28:53.595Z,13.40
2019-04-25T06:31:19.872Z,13.80
2019-04-25T06:33:49.478Z,14.10
2019-04-25T06:36:19.093Z,14.40
2019-04-25T06:38:48.429Z,14.60
2019-04-25T06:41:17.746Z,14.90
2019-04-25T06:43:48.714Z,15.20
2019-04-25T06:46:35.894Z,15.50
2019-04-25T06:49:15.602Z,15.80
2019-04-25T06:51:55.041Z,16.20
2019-04-25T06:54:25.765Z,16.60
2019-04-25T06:56:55.457Z,16.90
2019-04-25T06:59:26.104Z,17.30
2019-04-25T07:01:56.174Z,17.60
2019-04-25T07:04:26.984Z,18.00
2019-04-25T07:07:09.217Z,18.30
2019-04-25T07:09:29.569Z,18.70
2019-04-25T07:11:58.790Z,19.00
2019-04-25T07:14:28.222Z,19.30
2019-04-25T07:16:57.637Z,19.60
2019-04-25T07:19:28.230Z,19.90
2019-04-25T07:21:57.668Z,20.10
2019-04-25T07:24:27.326Z,20.40
2019-04-25T07:26:58.306Z,20.70
2019-04-25T07:29:47.119Z,20.90
2019-04-25T07:32:20.897Z,21.20
2019-04-25T07:34:51.290Z,21.40
2019-04-25T07:37:20.618Z,21.70
2019-04-25T07:39:50.095Z,21.90
2019-04-25T07:42:19.430Z,22.10
2019-04-25T07:44:52.454Z,22.40
2019-04-25T07:47:19.863Z,22.60
2019-04-25T07:49:49.231Z,22.90
2019-04-25T07:52:18.552Z,23.10
2019-04-25T07:54:47.887Z,23.30
2019-04-25T07:57:17.210Z,23.50
2019-04-25T07:59:46.543Z,23.70
2019-04-25T08:02:16.501Z,24.00
2019-04-25T08:04:45.838Z,24.10
2019-04-25T08:07:15.154Z,24.30
2019-04-25T08:09:44.485Z,24.60
2019-04-25T08:12:13.818Z,24.70
2019-04-25T08:14:51.369Z,24.90
2019-04-25T08:17:32.540Z,25.00
2019-04-25T08:20:04.023Z,25.10
2019-04-25T08:22:42.940Z,25.30
2019-04-25T08:25:06.871Z,25.40
2019-04-25T08:27:36.745Z,25.60
2019-04-25T08:30:06.542Z,25.80
2019-04-25T08:32:36.517Z,26.00
2019-04-25T08:35:06.992Z,26.10
2019-04-25T08:37:36.639Z,26.20
2019-04-25T08:40:07.358Z,26.30
2019-04-25T08:42:37.125Z,26.40
2019-04-25T08:45:07.930Z,26.50
2019-04-25T08:47:37.393Z,26.60
2019-04-25T08:50:26.371Z,26.70
2019-04-25T08:52:44.412Z,26.80
2019-04-25T08:55:32.985Z,27.00
2019-04-25T08:58:04.402Z,27.20
2019-04-25T09:00:59.335Z,27.40
2019-04-25T09:03:24.746Z,27.60
2019-04-25T09:05:54.257Z,27.70
2019-04-25T09:08:24.110Z,27.80
2019-04-25T09:10:53.565Z,27.80
2019-04-25T09:13:23.521Z,28.00
2019-04-25T09:15:54.043Z,28.10
2019-04-25T09:18:23.971Z,28.20
2019-04-25T09:20:53.990Z,28.40
2019-04-25T09:23:23.690Z,28.50
2019-04-25T09:25:54.454Z,28.70
2019-04-25T09:28:23.949Z,28.80
2019-04-25T09:30:53.976Z,29.00
2019-04-25T09:33:24.618Z,29.10
2019-04-25T09:35:54.124Z,29.30
2019-04-25T09:38:24.432Z,29.40
2019-04-25T09:40:54.198Z,29.60
2019-04-25T09:43:23.785Z,29.70
2019-04-25T09:46:13.316Z,29.90
2019-04-25T09:48:59.427Z,30.10
2019-04-25T09:51:33.640Z,30.30
2019-04-25T09:54:15.178Z,30.40
2019-04-25T09:56:47.181Z,30.50
2019-04-25T09:59:27.294Z,30.60
2019-04-25T10:01:49.637Z,30.70
2019-04-25T10:04:19.303Z,30.80
2019-04-25T10:06:48.870Z,30.90
2019-04-25T10:09:19.033Z,31.00
2019-04-25T10:11:48.430Z,31.00
2019-04-25T10:14:36.753Z,31.00
2019-04-25T10:17:07.005Z,30.90
2019-04-25T10:19:37.614Z,30.80
2019-04-25T10:22:07.425Z,30.80
2019-04-25T10:24:37.427Z,30.70
2019-04-25T10:27:08.089Z,30.60
2019-04-25T10:29:44.545Z,30.60
2019-04-25T10:32:09.954Z,30.50
2019-04-25T10:34:39.333Z,30.50
2019-04-25T10:37:09.740Z,30.50
2019-04-25T10:39:40.079Z,30.40
2019-04-25T10:42:09.603Z,30.40
2019-04-25T10:44:39.262Z,30.30
2019-04-25T10:47:09.786Z,30.20
2019-04-25T10:49:39.814Z,30.10
2019-04-25T10:52:10.226Z,30.00
2019-04-25T10:54:39.843Z,29.80
2019-04-25T10:57:09.326Z,29.70
2019-04-25T10:59:38.723Z,29.60
2019-04-25T11:02:09.466Z,29.50
2019-04-25T11:04:41.899Z,29.40
2019-04-25T11:07:11.441Z,29.30
2019-04-25T11:09:41.565Z,29.10
2019-04-25T11:12:13.937Z,29.00
2019-04-25T11:14:44.252Z,28.90
2019-04-25T11:17:15.494Z,28.80
2019-04-25T11:19:44.926Z,28.60
2019-04-25T11:22:15.593Z,28.40
2019-04-25T11:24:45.859Z,28.30
2019-04-25T11:27:16.334Z,28.20
2019-04-25T11:29:46.248Z,28.10
2019-04-25T11:32:19.896Z,28.10
2019-04-25T11:34:49.228Z,28.00
2019-04-25T11:37:20.290Z,28.00
2019-04-25T11:39:57.489Z,27.90
2019-04-25T11:42:27.150Z,27.90
2019-04-25T11:44:56.492Z,27.80
2019-04-25T11:47:25.959Z,27.80
2019-04-25T11:49:55.783Z,27.80
2019-04-25T11:52:28.295Z,27.70
2019-04-25T11:54:57.278Z,27.70
2019-04-25T11:57:26.635Z,27.80
2019-04-25T11:59:55.960Z,27.70
2019-04-25T12:02:26.785Z,27.70
2019-04-25T12:04:56.178Z,27.80
2019-04-25T12:07:25.877Z,27.80
2019-04-25T12:09:55.652Z,27.80
2019-04-25T12:12:25.145Z,27.80
2019-04-25T12:14:55.409Z,27.80
2019-04-25T12:17:24.942Z,27.80
2019-04-25T12:19:55.266Z,27.80
2019-04-25T12:22:26.754Z,27.90
2019-04-25T12:24:56.157Z,27.90
2019-04-25T12:27:26.618Z,27.90
2019-04-25T12:29:57.277Z,28.00
2019-04-25T12:32:26.733Z,28.00
2019-04-25T12:34:56.158Z,28.10
2019-04-25T12:37:25.568Z,28.10
2019-04-25T12:39:55.909Z,28.10
2019-04-25T12:42:26.382Z,28.10
2019-04-25T12:45:09.457Z,28.10
2019-04-25T12:47:42.873Z,28.10
2019-04-25T12:50:14.262Z,28.10
2019-04-25T12:52:43.749Z,28.20
2019-04-25T12:55:13.999Z,28.20
2019-04-25T12:57:43.459Z,28.20
2019-04-25T13:00:15.686Z,28.20
2019-04-25T13:02:45.162Z,28.20
2019-04-25T13:05:14.498Z,28.10
2019-04-25T13:07:43.821Z,28.10
2019-04-25T13:10:15.266Z,28.10
2019-04-25T13:12:44.426Z,28.10
2019-04-25T13:15:14.288Z,28.10
2019-04-25T13:17:43.727Z,28.10
2019-04-25T13:20:13.634Z,28.10
2019-04-25T13:22:43.283Z,28.10
2019-04-25T13:25:14.981Z,28.10
2019-04-25T13:27:45.938Z,28.10
2019-04-25T13:30:17.049Z,28.10
2019-04-25T13:32:50.737Z,28.10
2019-04-25T13:35:23.410Z,28.10
2019-04-25T13:37:53.946Z,28.00
2019-04-25T13:40:23.732Z,28.00
2019-04-25T13:42:53.251Z,28.00
2019-04-25T13:45:23.265Z,28.00
2019-04-25T13:47:52.653Z,28.10
2019-04-25T13:50:23.953Z,28.10
2019-04-25T13:52:53.439Z,28.10
2019-04-25T13:55:23.992Z,28.10
2019-04-25T13:57:54.852Z,28.00
2019-04-25T14:00:26.158Z,28.00
2019-04-25T14:02:56.986Z,28.00
2019-04-25T14:05:26.553Z,28.00
2019-04-25T14:07:55.946Z,28.00
2019-04-25T14:10:26.506Z,28.00
2019-04-25T14:12:56.019Z,28.00
2019-04-25T14:15:25.583Z,28.00
2019-04-25T14:18:03.733Z,28.00
2019-04-25T14:20:37.776Z,28.00
2019-04-25T14:23:08.266Z,28.00
2019-04-25T14:25:37.597Z,28.00
2019-04-25T14:28:07.063Z,28.00
2019-04-25T14:30:36.554Z,28.00
2019-04-25T14:33:05.994Z,28.00
2019-04-25T14:35:35.420Z,28.00
2019-04-25T14:38:04.905Z,28.00
2019-04-25T14:40:35.210Z,28.00
2019-04-25T14:43:05.520Z,28.00
2019-04-25T14:45:44.391Z,28.00
2019-04-25T14:48:06.080Z,28.00
2019-04-25T14:50:36.486Z,28.00
2019-04-25T14:53:05.807Z,28.00
2019-04-25T14:55:36.951Z,28.00
2019-04-25T14:58:08.142Z,28.00
2019-04-25T15:00:39.210Z,28.10
2019-04-25T15:03:08.529Z,28.00
2019-04-25T15:05:40.765Z,28.10
2019-04-25T15:08:09.111Z,28.10
2019-04-25T15:10:38.888Z,28.10
2019-04-25T15:13:08.878Z,28.20
2019-04-25T15:15:38.294Z,28.20
2019-04-25T15:18:07.694Z,28.20
2019-04-25T15:20:37.157Z,28.30
2019-04-25T15:23:06.473Z,28.30
2019-04-25T15:25:35.807Z,28.30
2019-04-25T15:28:05.129Z,28.30
2019-04-25T15:30:37.097Z,28.40
2019-04-25T15:33:06.567Z,28.40
2019-04-25T15:35:44.977Z,28.40
2019-04-25T15:38:27.877Z,28.40
2019-04-25T15:40:58.927Z,28.40
2019-04-25T15:43:46.342Z,28.40
2019-04-25T15:46:17.589Z,28.30
2019-04-25T15:48:46.953Z,28.40
2019-04-25T15:51:16.360Z,28.30
2019-04-25T15:53:45.677Z,28.40
2019-04-25T15:56:15.078Z,28.30
2019-04-25T15:58:44.418Z,28.30
2019-04-25T16:01:13.923Z,28.30
2019-04-25T16:03:43.242Z,28.30
2019-04-25T16:06:12.636Z,28.30
2019-04-25T16:08:42.969Z,28.30
2019-04-25T16:11:12.356Z,28.30
2019-04-25T16:13:41.708Z,28.30
2019-04-25T16:16:11.121Z,28.30
2019-04-25T16:18:41.178Z,28.30
2019-04-25T16:21:10.637Z,28.20
2019-04-25T16:23:39.969Z,28.30
2019-04-25T16:26:09.563Z,28.20
2019-04-25T16:28:39.047Z,28.20
2019-04-25T16:31:10.083Z,28.20
2019-04-25T16:33:39.413Z,28.10
2019-04-25T16:36:09.294Z,28.10
2019-04-25T16:38:39.023Z,28.10
2019-04-25T16:41:11.049Z,28.00
2019-04-25T16:43:43.076Z,28.00
2019-04-25T16:46:13.190Z,28.00
2019-04-25T16:48:42.522Z,28.00
2019-04-25T16:51:11.869Z,27.90
2019-04-25T16:53:42.196Z,27.80
2019-04-25T16:56:11.962Z,27.90
2019-04-25T16:58:41.297Z,27.80
2019-04-25T17:01:12.259Z,27.80
2019-04-25T17:03:42.301Z,27.80
2019-04-25T17:06:11.930Z,27.80
2019-04-25T17:08:41.296Z,27.80
2019-04-25T17:11:10.857Z,27.80
2019-04-25T17:13:42.591Z,27.70
2019-04-25T17:16:29.580Z,27.70
2019-04-25T17:19:01.573Z,27.70
2019-04-25T17:21:31.329Z,27.70
2019-04-25T17:24:01.308Z,27.70
2019-04-25T17:26:31.462Z,27.70
2019-04-25T17:29:02.731Z,27.60
2019-04-25T17:31:45.754Z,27.60
2019-04-25T17:34:16.899Z,27.60
2019-04-25T17:36:47.854Z,27.50
2019-04-25T17:39:18.906Z,27.40
2019-04-25T17:41:48.333Z,27.30
2019-04-25T17:44:17.672Z,27.10
2019-04-25T17:46:47.965Z,27.00
2019-04-25T17:49:17.289Z,26.80
2019-04-25T17:51:46.610Z,26.70
2019-04-25T17:54:18.364Z,26.40
2019-04-25T17:56:47.007Z,26.20
2019-04-25T17:59:16.358Z,26.00
2019-04-25T18:01:45.690Z,25.90
2019-04-25T18:04:15.031Z,25.70
2019-04-25T18:06:44.420Z,25.50
2019-04-25T18:09:13.853Z,25.20
2019-04-25T18:11:43.435Z,25.10
2019-04-25T18:14:13.846Z,24.90
2019-04-25T18:16:48.059Z,24.70
2019-04-25T18:19:19.102Z,24.50
2019-04-25T18:21:48.422Z,24.40
2019-04-25T18:24:28.635Z,24.20
2019-04-25T18:27:02.246Z,24.10
2019-04-25T18:29:31.650Z,23.90
2019-04-25T18:32:00.969Z,23.80
2019-04-25T18:34:34.942Z,23.60
2019-04-25T18:37:09.725Z,23.50
2019-04-25T18:39:40.717Z,23.40
2019-04-25T18:42:14.682Z,23.20
2019-04-25T18:44:46.168Z,23.10
2019-04-25T18:47:15.691Z,23.00
2019-04-25T18:49:46.744Z,22.90
2019-04-25T18:52:23.808Z,22.80
2019-04-25T18:55:00.733Z,22.60
2019-04-25T18:57:37.407Z,22.50
2019-04-25T19:00:25.607Z,22.40
2019-04-25T19:02:59.394Z,22.30
2019-04-25T19:05:30.370Z,22.10
2019-04-25T19:07:59.786Z,22.00
2019-04-25T19:10:29.230Z,21.90
2019-04-25T19:13:11.811Z,21.80
2019-04-25T19:15:29.657Z,21.70
2019-04-25T19:17:58.979Z,21.60
2019-04-25T19:20:28.714Z,21.50
2019-04-25T19:22:58.110Z,21.40
2019-04-25T19:25:27.474Z,21.30
2019-04-25T19:27:56.865Z,21.20
2019-04-25T19:30:26.202Z,21.10
2019-04-25T19:32:55.622Z,21.00
2019-04-25T19:35:25.090Z,21.00
2019-04-25T19:37:56.118Z,20.90
2019-04-25T19:40:39.621Z,20.80
2019-04-25T19:43:17.841Z,20.80
2019-04-25T19:45:47.199Z,20.70
2019-04-25T19:48:16.586Z,20.60
2019-04-25T19:50:47.946Z,20.50
2019-04-25T19:53:17.384Z,20.40
2019-04-25T19:55:47.571Z,20.30
2019-04-25T19:58:17.120Z,20.30
2019-04-25T20:00:48.692Z,20.20
2019-04-25T20:03:19.782Z,20.20
2019-04-25T20:05:59.750Z,20.10
2019-04-25T20:08:43.827Z,20.10
2019-04-25T20:11:17.678Z,20.00
2019-04-25T20:13:47.091Z,20.00
2019-04-25T20:16:16.511Z,19.90
2019-04-25T20:18:45.920Z,19.90
2019-04-25T20:21:15.257Z,19.80
2019-04-25T20:23:45.369Z,19.80
2019-04-25T20:26:15.754Z,19.70
2019-04-25T20:28:46.113Z,19.70
2019-04-25T20:31:15.589Z,19.70
2019-04-25T20:33:45.558Z,19.70
2019-04-25T20:36:17.951Z,19.60
2019-04-25T20:38:47.140Z,19.50
2019-04-25T20:41:16.808Z,19.50
2019-04-25T20:43:46.459Z,19.40
2019-04-25T20:46:16.817Z,19.40
2019-04-25T20:48:46.864Z,19.40
2019-04-25T20:51:16.730Z,19.30
2019-04-25T20:53:46.459Z,19.20
2019-04-25T20:56:16.866Z,19.20
2019-04-25T20:58:47.722Z,19.20
2019-04-25T21:01:17.199Z,19.10
2019-04-25T21:03:47.514Z,19.10
2019-04-25T21:06:23.213Z,19.00
2019-04-25T21:08:53.382Z,19.00
2019-04-25T21:11:22.843Z,19.00
2019-04-25T21:14:02.812Z,18.90
2019-04-25T21:16:42.906Z,18.90
2019-04-25T21:19:13.933Z,18.80
2019-04-25T21:21:43.349Z,18.80
2019-04-25T21:24:12.665Z,18.70
2019-04-25T21:26:41.993Z,18.70
2019-04-25T21:29:11.398Z,18.60
2019-04-25T21:31:40.806Z,18.60
2019-04-25T21:34:10.122Z,18.50
2019-04-25T21:36:39.741Z,18.50
2019-04-25T21:39:13.704Z,18.40
2019-04-25T21:41:46.322Z,18.50
2019-04-25T21:44:17.693Z,18.40
2019-04-25T21:46:46.950Z,18.30
2019-04-25T21:49:16.650Z,18.30
2019-04-25T21:51:46.087Z,18.30
2019-04-25T21:54:15.461Z,18.20
2019-04-25T21:56:45.075Z,18.20
2019-04-25T21:59:14.675Z,18.10
2019-04-25T22:01:44.183Z,18.00
2019-04-25T22:04:13.653Z,18.00
2019-04-25T22:06:43.542Z,17.90
2019-04-25T22:09:18.327Z,17.90
2019-04-25T22:11:47.987Z,17.80
2019-04-25T22:14:17.682Z,17.80
2019-04-25T22:16:47.389Z,17.70
2019-04-25T22:19:17.123Z,17.70
2019-04-25T22:21:46.850Z,17.60
2019-04-25T22:24:17.066Z,17.60
2019-04-25T22:26:48.737Z,17.50
2019-04-25T22:29:18.135Z,17.50
2019-04-25T22:32:01.725Z,17.40
2019-04-25T22:34:52.237Z,17.40
2019-04-25T22:37:16.389Z,17.40
2019-04-25T22:39:46.032Z,17.30
2019-04-25T22:42:17.011Z,17.30
2019-04-25T22:44:46.409Z,17.20
2019-04-25T22:47:17.598Z,17.20
2019-04-25T22:49:46.766Z,17.10
2019-04-25T22:52:16.373Z,17.10
2019-04-25T22:54:45.689Z,17.10
2019-04-25T22:57:15.378Z,17.00
2019-04-25T22:59:44.973Z,17.00
2019-04-25T23:02:15.954Z,17.00
2019-04-25T23:04:47.294Z,16.90
2019-04-25T23:07:17.948Z,16.90
2019-04-25T23:09:49.198Z,16.90
2019-04-25T23:12:18.884Z,16.80
2019-04-25T23:14:48.208Z,16.80
2019-04-25T23:17:17.531Z,16.80
2019-04-25T23:19:47.255Z,16.70
2019-04-25T23:22:16.642Z,16.70
2019-04-25T23:24:50.881Z,16.70
2019-04-25T23:27:38.144Z,16.70
2019-04-25T23:30:09.010Z,16.60
2019-04-25T23:32:39.448Z,16.60
2019-04-25T23:35:23.465Z,16.50
2019-04-25T23:37:40.138Z,16.50
2019-04-25T23:40:09.974Z,16.50
2019-04-25T23:42:39.311Z,16.40
2019-04-25T23:45:10.365Z,16.40
2019-04-25T23:47:39.730Z,16.40
2019-04-25T23:50:10.499Z,16.30
2019-04-25T23:52:39.895Z,16.30
2019-04-25T23:55:09.408Z,16.30
2019-04-25T23:57:38.922Z,16.20
